Time;durP1;ratioP1;P1;durP2;ratioP2;P2;SDS_P1;SDS_P2;PMS_P1;PMS_P2;Temp;Humidity;BMP_temperature;BMP_pressure;BME280_temperature;BME280_humidity;BME280_pressure;Samples;Min_cycle;Max_cycle;Signal;HPM_P1;HPM_P2
2021/10/10 00:01:17;;;;;;;11.50;6.38;;;;;;;8.62;75.05;100669.78;4993984;28;20089;-90
2021/10/10 00:03:44;;;;;;;14.63;6.78;;;;;;;8.56;75.90;100676.97;5008184;28;20050;-90
2021/10/10 00:06:10;;;;;;;14.13;7.43;;;;;;;8.50;76.32;100674.59;4993643;28;20046;-88
2021/10/10 00:08:37;;;;;;;11.13;6.90;;;;;;;8.50;76.09;100674.59;4993701;28;20042;-89
2021/10/10 00:11:04;;;;;;;15.52;6.38;;;;;;;8.66;75.08;100675.75;4993448;28;20074;-89
2021/10/10 00:13:31;;;;;;;9.35;6.55;;;;;;;8.52;75.53;100680.56;4993430;28;20054;-90
2021/10/10 00:15:58;;;;;;;11.63;6.07;;;;;;;8.43;76.15;100670.50;4993369;28;20560;-89
2021/10/10 00:18:24;;;;;;;14.10;6.10;;;;;;;8.44;76.63;100677.41;4992954;28;20050;-90
2021/10/10 00:20:51;;;;;;;11.85;6.70;;;;;;;8.36;77.47;100675.03;4992797;28;20182;-91
2021/10/10 00:23:18;;;;;;;9.95;5.65;;;;;;;8.36;77.10;100668.13;4993686;28;20105;-91
2021/10/10 00:25:45;;;;;;;8.55;5.80;;;;;;;8.21;78.39;100671.19;4993290;28;20042;-90
2021/10/10 00:28:12;;;;;;;17.30;6.20;;;;;;;8.19;78.63;100672.97;4994037;28;20105;-91
2021/10/10 00:30:39;;;;;;;12.10;7.95;;;;;;;8.21;77.77;100671.19;4993756;28;20043;-92
2021/10/10 00:33:05;;;;;;;10.40;6.65;;;;;;;8.27;76.97;100675.34;4994429;28;20383;-91
2021/10/10 00:35:34;;;;;;;11.90;6.72;;;;;;;8.22;77.04;100670.28;4993008;28;20108;-92
2021/10/10 00:38:01;;;;;;;16.05;6.20;;;;;;;8.21;77.18;100671.19;4994618;28;20048;-92
2021/10/10 00:40:29;;;;;;;21.60;8.70;;;;;;;8.15;77.66;100668.81;4993672;28;20037;-91
2021/10/10 00:42:56;;;;;;;16.40;7.15;;;;;;;8.16;78.12;100667.91;4994227;28;20038;-91
2021/10/10 00:45:22;;;;;;;15.77;7.60;;;;;;;8.14;77.83;100667.09;4994192;28;20054;-91
2021/10/10 00:47:52;;;;;;;13.48;6.20;;;;;;;8.19;76.93;100669.53;4993739;28;20042;-92
2021/10/10 00:50:19;;;;;;;10.27;6.57;;;;;;;8.17;77.26;100667.00;4990539;28;20046;-94
2021/10/10 00:52:46;;;;;;;9.88;6.10;;;;;;;8.17;76.55;100676.53;4990138;28;20041;-94
2021/10/10 00:55:14;;;;;;;11.63;6.70;;;;;;;8.21;77.37;100671.19;4987069;28;20166;-93
2021/10/10 00:57:45;;;;;;;11.23;7.18;;;;;;;8.05;78.44;100668.25;4994424;28;20046;-93
2021/10/10 01:00:15;;;;;;;12.50;6.20;;;;;;;7.90;79.97;100673.09;4994508;28;20042;-92
2021/10/10 01:02:43;;;;;;;21.08;6.95;;;;;;;7.90;79.77;100660.13;4993729;28;20035;-92
2021/10/10 01:05:15;;;;;;;11.48;6.00;;;;;;;7.97;79.36;100665.06;4993700;28;20050;-92
2021/10/10 01:07:45;;;;;;;12.68;7.57;;;;;;;7.82;80.36;100666.38;4993991;28;20043;-92
2021/10/10 01:10:12;;;;;;;9.35;6.25;;;;;;;7.78;80.02;100670.00;4993182;28;20097;-92
2021/10/10 01:12:45;;;;;;;14.82;5.93;;;;;;;7.71;79.68;100654.66;4995697;28;20548;-92
2021/10/10 01:15:13;;;;;;;14.38;6.28;;;;;;;7.70;79.93;100659.00;4995437;28;20054;-91
2021/10/10 01:17:40;;;;;;;13.13;6.45;;;;;;;7.80;78.47;100652.63;4996090;28;20066;-85
2021/10/10 01:20:10;;;;;;;14.57;6.43;;;;;;;7.82;78.60;100650.81;4996717;28;20046;-86
2021/10/10 01:22:37;;;;;;;13.18;5.97;;;;;;;7.81;78.96;100650.88;4997480;28;20043;-86
2021/10/10 01:25:05;;;;;;;11.65;6.32;;;;;;;7.77;79.12;100646.66;4999287;28;20073;-86
2021/10/10 01:27:32;;;;;;;18.20;6.35;;;;;;;7.63;80.64;100647.13;4996956;28;20047;-86
2021/10/10 01:29:58;;;;;;;9.07;6.10;;;;;;;7.52;81.22;100644.03;4997611;28;20050;-86
2021/10/10 01:32:25;;;;;;;10.73;6.20;;;;;;;7.55;80.48;100646.50;4996264;28;20485;-85
2021/10/10 01:34:52;;;;;;;13.00;6.05;;;;;;;7.64;80.13;100646.22;4997425;28;20046;-86
2021/10/10 01:37:19;;;;;;;13.15;6.55;;;;;;;7.67;80.22;100635.75;4998534;28;20042;-85
2021/10/10 01:39:45;;;;;;;11.82;6.35;;;;;;;7.62;80.58;100637.66;4997727;28;20392;-85
2021/10/10 01:42:12;;;;;;;9.07;6.93;;;;;;;7.63;80.09;100634.16;4996961;28;20058;-85
2021/10/10 01:44:39;;;;;;;40.33;8.25;;;;;;;7.53;80.95;100628.41;4996315;28;20449;-85
2021/10/10 01:47:07;;;;;;;12.10;5.85;;;;;;;7.50;81.11;100627.63;5002467;28;20070;-92
2021/10/10 01:49:38;;;;;;;20.13;8.13;;;;;;;7.52;80.91;100621.53;5007849;28;20050;-91
2021/10/10 01:52:06;;;;;;;14.75;6.22;;;;;;;7.50;81.30;100625.03;5010154;28;20041;-92
2021/10/10 01:54:33;;;;;;;13.75;7.03;;;;;;;7.51;81.22;100621.53;5013866;28;20042;-92
2021/10/10 01:56:59;;;;;;;13.52;6.72;;;;;;;7.52;81.73;100623.28;5000743;28;20046;-93
2021/10/10 01:59:28;;;;;;;7.78;5.75;;;;;;;7.44;81.35;100622.66;5009796;28;20045;-91
2021/10/10 02:01:56;;;;;;;13.50;6.22;;;;;;;7.44;81.68;100617.47;5007613;28;20100;-92
2021/10/10 02:04:23;;;;;;;7.72;5.57;;;;;;;7.47;81.50;100613.03;5008370;28;20030;-92
2021/10/10 02:06:50;;;;;;;14.57;6.65;;;;;;;7.46;81.59;100608.75;5014627;28;20054;-90
2021/10/10 02:09:17;;;;;;;9.00;5.65;;;;;;;7.50;81.76;100612.06;5015577;28;20061;-92
2021/10/10 02:11:45;;;;;;;10.10;5.70;;;;;;;7.44;81.84;100613.13;5007985;28;20038;-90
2021/10/10 02:14:12;;;;;;;16.10;7.10;;;;;;;7.40;81.59;100602.88;5016499;28;20049;-93
2021/10/10 02:16:41;;;;;;;8.13;6.65;;;;;;;7.35;81.90;100601.31;5008318;28;20031;-92
2021/10/10 02:19:08;;;;;;;10.88;5.88;;;;;;;7.37;82.17;100603.84;5013884;28;20046;-93
2021/10/10 02:21:35;;;;;;;11.50;6.97;;;;;;;7.37;81.78;100596.06;5003952;28;20054;-93
2021/10/10 02:24:01;;;;;;;14.57;6.03;;;;;;;7.40;81.95;100600.28;5014319;28;20042;-93
2021/10/10 02:26:29;;;;;;;12.70;6.30;;;;;;;7.38;81.97;100599.50;5016792;28;20026;-94
2021/10/10 02:28:56;;;;;;;15.73;6.20;;;;;;;7.28;82.15;100592.00;5014355;28;20042;-90
2021/10/10 02:31:23;;;;;;;14.25;6.28;;;;;;;7.24;83.11;100592.13;5013474;28;20051;-94
2021/10/10 02:33:51;;;;;;;16.27;6.88;;;;;;;7.17;82.66;100590.63;4994524;28;20113;-93
2021/10/10 02:36:17;;;;;;;11.52;6.20;;;;;;;7.17;83.50;100588.88;4996363;28;20034;-90
2021/10/10 02:38:44;;;;;;;18.25;7.90;;;;;;;7.05;83.58;100594.44;4999408;28;20287;-94
2021/10/10 02:41:11;;;;;;;15.23;7.05;;;;;;;7.08;83.62;100586.56;5017800;28;20026;-95
2021/10/10 02:43:38;;;;;;;12.38;5.90;;;;;;;7.07;83.97;100583.13;5016805;28;20022;-94
2021/10/10 02:46:05;;;;;;;13.65;6.95;;;;;;;7.04;84.65;100583.22;5008032;28;20050;-94
2021/10/10 02:48:31;;;;;;;12.18;6.72;;;;;;;7.01;86.53;100577.28;5015129;28;20039;-95
2021/10/10 02:50:58;;;;;;;11.45;6.65;;;;;;;6.98;86.55;100577.41;5017623;28;20094;-94
2021/10/10 02:53:25;;;;;;;10.77;5.78;;;;;;;6.99;85.58;100579.94;5013856;28;20065;-95
2021/10/10 02:55:52;;;;;;;12.25;6.60;;;;;;;7.08;85.76;100577.06;5006417;28;20118;-94
2021/10/10 02:58:20;;;;;;;15.32;7.65;;;;;;;7.11;85.24;100581.28;5014066;28;20053;-95
2021/10/10 03:00:47;;;;;;;9.18;7.45;;;;;;;7.17;85.21;100573.31;5008297;28;20046;-96
2021/10/10 03:03:16;;;;;;;11.57;6.68;;;;;;;7.16;85.02;100571.63;5008550;28;20112;-93
2021/10/10 03:05:43;;;;;;;12.48;7.25;;;;;;;7.18;84.83;100569.84;5016787;28;20034;-94
2021/10/10 03:08:12;;;;;;;13.15;7.75;;;;;;;7.17;85.12;100573.31;5014796;28;20062;-92
2021/10/10 03:10:40;;;;;;;14.75;7.18;;;;;;;7.27;84.51;100568.72;5009224;28;20062;-89
2021/10/10 03:13:07;;;;;;;22.60;10.32;;;;;;;7.31;83.81;100570.31;5017955;28;20042;-89
2021/10/10 03:15:35;;;;;;;12.82;6.20;;;;;;;7.35;83.62;100567.59;5017247;28;20144;-92
2021/10/10 03:18:02;;;;;;;14.10;6.47;;;;;;;7.43;83.85;100566.47;5017837;28;20049;-92
2021/10/10 03:20:29;;;;;;;17.33;6.50;;;;;;;7.48;82.63;100559.41;5017670;28;20042;-92
2021/10/10 03:22:56;;;;;;;20.15;6.85;;;;;;;7.48;83.02;100562.84;5016944;28;20069;-92
2021/10/10 03:25:22;;;;;;;11.15;7.63;;;;;;;7.42;83.23;100550.06;4998264;28;20061;-92
2021/10/10 03:27:50;;;;;;;16.85;6.40;;;;;;;7.37;83.77;100558.91;5017119;28;20033;-92
2021/10/10 03:30:17;;;;;;;10.15;6.68;;;;;;;7.38;83.95;100565.78;5015616;28;20558;-92
2021/10/10 03:32:44;;;;;;;15.45;7.47;;;;;;;7.35;83.56;100552.03;5008378;28;20054;-91
2021/10/10 03:35:11;;;;;;;10.95;6.13;;;;;;;7.39;83.58;100547.56;5007761;28;20065;-92
2021/10/10 03:37:37;;;;;;;14.23;7.20;;;;;;;7.45;83.32;100551.72;5007144;28;20027;-92
2021/10/10 03:40:09;;;;;;;14.88;7.13;;;;;;;7.42;83.91;100552.66;5016792;28;20018;-93
2021/10/10 03:42:37;;;;;;;14.50;6.68;;;;;;;7.44;84.04;100542.25;5002217;28;20050;-91
2021/10/10 03:45:05;;;;;;;15.75;7.10;;;;;;;7.46;84.25;100556.03;5012092;28;20022;-93
2021/10/10 03:47:32;;;;;;;11.63;6.15;;;;;;;7.45;84.03;100551.72;5016389;28;20053;-93
2021/10/10 03:49:59;;;;;;;14.48;7.18;;;;;;;7.30;85.32;100550.47;4996995;28;20058;-93
2021/10/10 03:52:52;;;;;;;12.07;6.32;;;;;;;7.28;85.72;100547.91;4998015;28;20061;-92
2021/10/10 03:55:28;;;;;;;10.95;7.28;;;;;;;7.26;86.04;100536.75;4998131;28;20073;-93
2021/10/10 03:58:21;;;;;;;11.80;7.68;;;;;;;7.20;86.10;100533.50;4997573;28;20521;-92
2021/10/10 04:00:49;;;;;;;11.77;6.18;;;;;;;7.18;86.41;100537.88;4995525;28;20121;-92
2021/10/10 04:06:36;;;;;;;8.25;6.65;;;;;;;7.03;87.98;100539.19;4974782;28;20057;-92
2021/10/10 04:09:04;;;;;;;10.77;6.32;;;;;;;7.04;87.06;100535.72;4976309;28;20043;-92
2021/10/10 04:11:34;;;;;;;16.95;7.22;;;;;;;7.05;86.56;100534.81;4976592;28;20078;-92
2021/10/10 04:14:03;;;;;;;13.77;8.68;;;;;;;7.00;87.06;100534.97;4995370;28;20046;-92
2021/10/10 04:16:31;;;;;;;15.32;6.55;;;;;;;6.97;88.01;100526.44;4994971;28;20502;-92
2021/10/10 04:18:58;;;;;;;12.73;6.72;;;;;;;6.95;88.24;100536.00;4994437;28;20103;-92
2021/10/10 04:21:25;;;;;;;12.65;6.18;;;;;;;7.04;87.25;100535.72;4993382;28;20053;-92
2021/10/10 04:23:51;;;;;;;17.80;6.57;;;;;;;7.17;86.20;100531.84;4994081;28;20489;-93
2021/10/10 04:26:21;;;;;;;14.27;7.28;;;;;;;7.04;87.53;100538.31;4993450;28;20076;-94
2021/10/10 04:28:48;;;;;;;12.90;7.85;;;;;;;7.01;87.05;100530.63;4994505;28;20038;-93
2021/10/10 04:31:17;;;;;;;13.23;6.95;;;;;;;6.87;88.23;100527.59;4991057;28;20097;-90
2021/10/10 04:33:44;;;;;;;10.77;6.55;;;;;;;6.89;88.15;100523.25;4992307;28;20043;-87
2021/10/10 04:36:10;;;;;;;16.05;6.82;;;;;;;7.02;87.92;100521.94;4993075;28;20050;-95
2021/10/10 04:38:37;;;;;;;17.55;6.68;;;;;;;7.12;87.12;100522.50;4993969;28;20038;-93
2021/10/10 04:41:04;;;;;;;12.75;7.38;;;;;;;7.07;87.17;100530.44;4993692;28;20046;-90
2021/10/10 04:43:31;;;;;;;8.32;6.47;;;;;;;7.00;87.99;100524.59;4993345;28;20097;-89
2021/10/10 04:45:58;;;;;;;14.18;7.45;;;;;;;7.12;87.50;100528.53;4992418;28;20545;-91
2021/10/10 04:48:24;;;;;;;11.50;8.25;;;;;;;7.17;86.75;100520.63;4994230;28;20493;-91
2021/10/10 04:50:51;;;;;;;11.18;6.88;;;;;;;7.28;86.51;100524.56;4997845;28;20049;-90
2021/10/10 04:53:18;;;;;;;14.77;6.85;;;;;;;7.34;85.58;100519.19;4992858;28;20050;-91
2021/10/10 04:55:47;;;;;;;10.73;7.13;;;;;;;7.18;86.06;100517.97;4989189;28;20093;-91
2021/10/10 04:58:15;;;;;;;11.13;8.45;;;;;;;7.13;86.95;100514.69;4996563;28;20102;-92
2021/10/10 05:00:42;;;;;;;13.77;9.30;;;;;;;7.19;85.96;100509.34;4983813;28;20081;-91
2021/10/10 05:03:09;;;;;;;11.98;6.88;;;;;;;7.28;85.10;100514.19;4993406;28;20482;-92
2021/10/10 05:05:41;;;;;;;10.98;6.63;;;;;;;7.38;83.88;100512.16;4996460;28;20044;-91
2021/10/10 05:08:09;;;;;;;8.85;6.40;;;;;;;7.46;83.48;100507.59;4997448;28;20049;-91
2021/10/10 05:10:36;;;;;;;11.32;6.65;;;;;;;7.42;83.26;100511.16;4996725;28;20089;-92
2021/10/10 05:13:06;;;;;;;12.55;5.72;;;;;;;7.47;82.97;100511.03;4997528;28;20100;-90
2021/10/10 05:15:33;;;;;;;9.02;6.03;;;;;;;7.28;83.77;100521.97;4995633;28;20046;-89
2021/10/10 05:18:00;;;;;;;15.27;8.50;;;;;;;7.32;84.59;100515.81;4991690;28;20081;-90
2021/10/10 05:20:28;;;;;;;12.30;6.70;;;;;;;7.27;84.75;100516.84;4998998;28;20038;-91
2021/10/10 05:22:55;;;;;;;9.95;7.20;;;;;;;7.29;84.01;100517.63;5001088;28;20042;-91
2021/10/10 05:25:22;;;;;;;12.15;7.45;;;;;;;7.32;83.42;100521.00;5011750;28;20097;-92
2021/10/10 05:27:51;;;;;;;10.52;6.25;;;;;;;7.30;83.11;100524.53;5004670;28;20047;-92
2021/10/10 05:30:18;;;;;;;25.08;8.30;;;;;;;7.24;84.07;100522.97;5000833;28;20072;-92
2021/10/10 05:32:45;;;;;;;13.98;7.32;;;;;;;7.23;85.04;100523.88;4994639;28;20039;-94
2021/10/10 05:35:13;;;;;;;17.55;8.48;;;;;;;7.23;85.62;100523.88;4990260;28;20038;-92
2021/10/10 05:37:42;;;;;;;8.65;6.32;;;;;;;7.28;85.69;100532.34;4994298;28;20035;-91
2021/10/10 05:40:10;;;;;;;13.48;7.60;;;;;;;7.30;85.71;100527.13;4992615;28;20049;-89
2021/10/10 05:42:38;;;;;;;10.60;6.95;;;;;;;7.30;85.93;100527.97;4996116;28;20084;-89
2021/10/10 05:45:07;;;;;;;15.32;7.40;;;;;;;7.50;85.00;100532.50;5000462;28;20052;-95
2021/10/10 05:47:38;;;;;;;12.93;7.22;;;;;;;7.68;84.30;100528.47;4994650;28;20055;-94
2021/10/10 05:50:08;;;;;;;16.15;7.47;;;;;;;7.72;83.50;100530.03;5000313;28;20118;-93
2021/10/10 05:52:38;;;;;;;12.88;5.80;;;;;;;7.73;83.81;100530.91;4993704;28;20092;-94
2021/10/10 05:55:08;;;;;;;11.23;5.88;;;;;;;7.72;84.74;100535.22;4991239;28;20489;-93
2021/10/10 05:57:45;;;;;;;16.42;6.47;;;;;;;7.88;83.27;100540.75;4993822;28;20039;-94
2021/10/10 06:00:16;;;;;;;14.15;7.15;;;;;;;8.10;82.03;100541.72;4993535;28;20048;-87
2021/10/10 06:02:45;;;;;;;12.90;6.45;;;;;;;8.15;81.32;100523.41;4990480;28;20085;-87
2021/10/10 06:05:12;;;;;;;15.63;6.60;;;;;;;8.29;81.20;100533.28;4993363;28;20046;-88
2021/10/10 06:07:39;;;;;;;12.05;5.55;;;;;;;8.46;79.74;100530.09;4992940;28;20109;-87
2021/10/10 06:10:08;;;;;;;10.05;6.00;;;;;;;8.49;80.62;100530.84;4993799;28;20559;-88
2021/10/10 06:12:37;;;;;;;19.20;6.60;;;;;;;8.57;81.01;100536.56;4974496;28;20046;-86
2021/10/10 06:15:07;;;;;;;11.20;6.45;;;;;;;8.19;83.30;100540.53;4992875;28;20504;-87
2021/10/10 06:17:35;;;;;;;12.32;6.20;;;;;;;8.62;82.37;100547.66;4994959;28;20038;-88
2021/10/10 06:20:05;;;;;;;10.57;6.35;;;;;;;8.84;80.70;100545.13;4990631;28;20543;-88
2021/10/10 06:22:33;;;;;;;8.43;5.57;;;;;;;8.83;80.90;100538.19;4990185;28;20405;-91
2021/10/10 06:25:00;;;;;;;18.00;5.65;;;;;;;9.07;79.93;100539.03;4990551;28;20459;-89
2021/10/10 06:27:27;;;;;;;19.00;7.13;;;;;;;8.98;79.97;100533.34;4992245;28;20042;-84
2021/10/10 06:29:54;;;;;;;10.70;6.22;;;;;;;9.19;80.38;100532.50;4989103;28;20042;-85
2021/10/10 06:32:21;;;;;;;18.65;6.75;;;;;;;9.21;80.54;100537.63;4991864;28;20085;-85
2021/10/10 06:34:48;;;;;;;12.32;6.18;;;;;;;9.25;81.77;100534.00;4989289;28;20120;-80
2021/10/10 06:37:15;;;;;;;12.38;6.70;;;;;;;9.16;82.38;100541.28;4989963;28;20039;-83
2021/10/10 06:39:42;;;;;;;8.70;6.10;;;;;;;9.26;82.46;100536.53;4990037;28;20038;-84
2021/10/10 06:42:09;;;;;;;13.38;7.68;;;;;;;9.47;78.39;100544.38;4990321;28;20039;-81
2021/10/10 06:44:36;;;;;;;11.48;7.82;;;;;;;9.50;75.18;100549.47;4989940;28;20042;-82
2021/10/10 06:47:03;;;;;;;13.80;7.47;;;;;;;9.74;73.48;100534.59;5003076;28;20125;-83
2021/10/10 06:49:30;;;;;;;13.40;7.88;;;;;;;9.65;74.20;100548.84;4990877;28;20065;-87
2021/10/10 06:51:57;;;;;;;14.27;8.70;;;;;;;9.81;73.76;100539.50;4988849;28;20382;-82
2021/10/10 06:54:26;;;;;;;15.10;8.13;;;;;;;9.88;73.19;100551.34;4990411;28;20046;-86
2021/10/10 06:56:53;;;;;;;12.70;8.20;;;;;;;9.79;72.63;100550.88;4988691;28;20074;-81
2021/10/10 06:59:19;;;;;;;9.90;6.55;;;;;;;10.09;72.41;100546.13;4986965;28;20050;-83
2021/10/10 07:01:47;;;;;;;12.90;7.03;;;;;;;10.47;72.21;100555.72;4989633;28;20515;-85
2021/10/10 07:04:16;;;;;;;19.27;8.20;;;;;;;10.49;75.10;100566.97;4992043;28;20115;-85
2021/10/10 07:06:43;;;;;;;18.23;9.50;;;;;;;10.88;73.33;100560.00;4990403;28;20089;-91
2021/10/10 07:09:15;;;;;;;25.15;11.55;;;;;;;10.80;71.98;100568.16;4990409;28;20046;-87
2021/10/10 07:11:42;;;;;;;13.88;8.68;;;;;;;10.93;71.57;100561.47;4989314;28;20050;-89
2021/10/10 07:14:08;;;;;;;19.15;8.38;;;;;;;10.98;70.85;100556.06;5007144;28;20050;-95
2021/10/10 07:16:35;;;;;;;18.73;9.57;;;;;;;10.88;69.48;100560.00;4989448;28;20062;-95
2021/10/10 07:19:03;;;;;;;21.45;9.93;;;;;;;10.93;70.98;100563.25;4992528;28;20092;-95
2021/10/10 07:21:55;;;;;;;12.35;9.30;;;;;;;10.59;71.95;100558.72;4998194;28;20371;-96
2021/10/10 07:27:07;;;;;;;25.70;10.95;;;;;;;10.73;72.63;100564.16;4996450;28;20392;-96
2021/10/10 07:29:34;;;;;;;17.95;10.38;;;;;;;10.78;71.28;100559.56;5002505;28;20133;-95
2021/10/10 07:32:02;;;;;;;15.25;11.20;;;;;;;10.74;71.44;100560.63;4996891;28;20124;-94
2021/10/10 07:34:28;;;;;;;18.05;10.23;;;;;;;10.75;71.11;100564.91;4994873;28;20042;-92
2021/10/10 07:37:01;;;;;;;13.98;8.63;;;;;;;10.88;71.75;100565.22;4993267;28;20049;-96
2021/10/10 07:39:28;;;;;;;16.77;9.77;;;;;;;10.81;72.06;100564.63;5003693;28;20038;-96
2021/10/10 07:41:56;;;;;;;15.68;9.23;;;;;;;10.90;72.11;100559.00;5002192;28;20126;-93
2021/10/10 07:44:29;;;;;;;17.58;8.45;;;;;;;10.99;71.97;100574.22;5000122;28;20038;-93
2021/10/10 07:47:15;;;;;;;14.27;9.32;;;;;;;11.08;71.65;100561.66;5002695;28;20046;-95
2021/10/10 07:49:43;;;;;;;22.58;10.48;;;;;;;11.05;72.12;100567.03;5009046;28;20042;-96
2021/10/10 07:52:30;;;;;;;16.13;10.27;;;;;;;11.01;72.02;100571.53;5006703;28;20050;-95
2021/10/10 07:54:57;;;;;;;14.07;9.75;;;;;;;11.16;72.04;100568.22;5006673;28;20061;-96
2021/10/10 07:57:40;;;;;;;20.23;11.10;;;;;;;10.93;72.03;100565.84;5006597;28;20053;-95
2021/10/10 08:00:09;;;;;;;14.35;10.18;;;;;;;11.01;71.06;100561.09;4987656;28;20137;-96
2021/10/10 08:02:56;;;;;;;18.60;10.15;;;;;;;11.21;71.85;100562.78;4984380;28;20553;-96
2021/10/10 08:05:26;;;;;;;13.10;8.82;;;;;;;11.12;73.80;100563.22;4993987;28;20042;-93
2021/10/10 08:07:54;;;;;;;17.40;9.57;;;;;;;11.11;73.68;100562.38;4991298;28;20050;-94
2021/10/10 08:10:24;;;;;;;17.05;9.40;;;;;;;11.17;73.63;100559.47;4991926;28;20061;-94
2021/10/10 08:12:51;;;;;;;13.02;8.95;;;;;;;11.22;72.99;100561.88;4991402;28;20046;-95
2021/10/10 08:15:18;;;;;;;14.32;10.00;;;;;;;11.10;72.74;100565.06;4993636;28;20500;-94
2021/10/10 08:17:45;;;;;;;18.40;9.35;;;;;;;11.36;72.30;100559.44;4989104;28;20046;-96
2021/10/10 08:20:15;;;;;;;12.57;8.10;;;;;;;11.36;72.00;100559.44;5001321;28;20481;-95
2021/10/10 08:22:42;;;;;;;17.95;9.23;;;;;;;11.42;71.15;100559.16;4994852;28;20093;-92
2021/10/10 08:25:13;;;;;;;16.85;9.05;;;;;;;11.57;69.77;100559.34;4994822;28;20097;-94
2021/10/10 08:27:41;;;;;;;18.55;10.40;;;;;;;11.46;69.93;100554.63;4996413;28;20042;-94
2021/10/10 08:30:10;;;;;;;22.52;8.70;;;;;;;11.60;69.00;100562.63;5004995;28;20092;-95
2021/10/10 08:32:39;;;;;;;14.57;8.13;;;;;;;11.79;68.87;100554.72;4997365;28;20105;-94
2021/10/10 08:35:07;;;;;;;28.73;11.82;;;;;;;11.62;69.09;100563.41;5002279;28;20039;-92
2021/10/10 08:37:34;;;;;;;12.05;8.15;;;;;;;11.86;68.39;100556.13;4995075;28;20054;-92
2021/10/10 08:40:06;;;;;;;13.30;7.82;;;;;;;11.74;67.73;100557.56;5000395;28;20046;-92
2021/10/10 08:42:38;;;;;;;12.85;8.10;;;;;;;11.90;66.44;100547.22;5012588;28;20038;-91
2021/10/10 08:45:19;;;;;;;12.77;8.38;;;;;;;11.80;65.82;100556.41;5001062;28;20055;-92
2021/10/10 08:47:46;;;;;;;17.85;8.35;;;;;;;12.20;65.24;100557.03;4994880;28;20533;-92
2021/10/10 08:50:25;;;;;;;9.70;7.32;;;;;;;12.68;62.98;100550.16;4997086;28;20490;-91
2021/10/10 08:52:59;;;;;;;15.50;7.55;;;;;;;12.28;62.91;100557.47;4994757;28;20113;-93
2021/10/10 08:55:28;;;;;;;13.48;6.97;;;;;;;12.22;63.46;100560.41;4993860;28;20038;-96
2021/10/10 08:57:55;;;;;;;14.20;7.28;;;;;;;12.46;63.06;100550.44;5001691;28;20042;-93
2021/10/10 09:00:33;;;;;;;14.68;8.05;;;;;;;12.69;62.33;100557.06;5006330;28;20031;-94
2021/10/10 09:03:08;;;;;;;12.35;8.20;;;;;;;12.64;62.01;100551.25;4997564;28;20047;-93
2021/10/10 09:05:49;;;;;;;11.18;6.75;;;;;;;12.73;61.02;100545.50;4996244;28;20050;-94
2021/10/10 09:08:16;;;;;;;14.77;7.10;;;;;;;12.78;60.97;100553.94;4995519;28;20382;-93
2021/10/10 09:10:43;;;;;;;14.52;7.70;;;;;;;13.02;60.57;100555.22;5005189;28;20038;-90
2021/10/10 09:13:13;;;;;;;15.07;7.88;;;;;;;12.96;60.72;100559.97;5008691;28;20047;-93
2021/10/10 09:15:49;;;;;;;14.45;7.85;;;;;;;13.24;59.59;100560.13;4998933;28;20042;-95
2021/10/10 09:18:16;;;;;;;16.77;7.47;;;;;;;13.62;58.55;100554.50;5002447;28;20050;-94
2021/10/10 09:20:46;;;;;;;13.23;7.10;;;;;;;13.89;57.68;100558.13;5003430;28;20402;-91
2021/10/10 09:23:16;;;;;;;12.60;8.07;;;;;;;13.49;58.36;100548.28;5006090;28;20044;-89
2021/10/10 09:25:59;;;;;;;15.07;7.80;;;;;;;12.74;59.62;100560.28;5007060;28;20042;-93
2021/10/10 09:28:28;;;;;;;20.00;8.48;;;;;;;13.41;58.41;100561.81;4992583;28;20402;-87
2021/10/10 09:31:00;;;;;;;16.55;6.97;;;;;;;14.11;56.70;100560.34;4992228;28;20042;-87
2021/10/10 09:33:53;;;;;;;12.75;6.80;;;;;;;13.97;54.27;100549.81;4994063;28;20038;-90
2021/10/10 09:36:28;;;;;;;12.45;8.30;;;;;;;13.91;55.24;100554.59;4994568;28;20074;-85
2021/10/10 09:39:04;;;;;;;12.95;7.30;;;;;;;13.53;55.46;100550.66;4997450;28;20050;-91
2021/10/10 09:44:08;;;;;;;14.82;6.43;;;;;;;13.75;53.77;100554.66;4995253;28;20441;-86
2021/10/10 09:46:38;;;;;;;12.73;6.15;;;;;;;14.04;53.13;100545.06;4995893;28;20050;-89
2021/10/10 09:49:31;;;;;;;11.45;7.07;;;;;;;13.83;55.21;100537.53;4995405;28;20085;-88
2021/10/10 09:52:10;;;;;;;9.18;6.50;;;;;;;13.40;54.94;100547.03;5000189;28;20042;-90
2021/10/10 09:54:57;;;;;;;13.10;6.68;;;;;;;14.20;55.16;100540.56;4998363;28;20054;-89
2021/10/10 09:57:27;;;;;;;10.57;6.43;;;;;;;14.55;53.79;100533.22;5003229;28;20111;-93
2021/10/10 09:59:55;;;;;;;11.65;6.70;;;;;;;13.48;53.61;100552.69;5012378;28;20108;-96
2021/10/10 10:02:41;;;;;;;11.93;7.25;;;;;;;13.76;53.12;100535.38;5007032;28;20081;-92
2021/10/10 10:05:21;;;;;;;12.07;5.97;;;;;;;13.85;52.81;100533.06;5022218;28;20050;-92
2021/10/10 10:07:50;;;;;;;15.38;6.28;;;;;;;14.01;51.16;100535.63;5001233;28;20158;-91
2021/10/10 10:10:17;;;;;;;11.55;6.95;;;;;;;13.02;53.08;100536.91;5000131;28;20085;-89
2021/10/10 10:12:46;;;;;;;16.83;7.75;;;;;;;13.93;52.28;100537.00;5001398;28;20042;-93
2021/10/10 10:15:13;;;;;;;13.27;5.75;;;;;;;14.34;50.97;100532.72;5002229;28;20064;-90
2021/10/10 10:17:40;;;;;;;18.80;6.88;;;;;;;14.11;51.23;100526.25;5003021;28;20058;-90
2021/10/10 10:20:09;;;;;;;14.20;7.47;;;;;;;14.12;51.08;100527.94;4993653;28;20098;-90
2021/10/10 10:22:37;;;;;;;19.00;7.78;;;;;;;13.67;52.67;100535.91;4991429;28;20041;-93
2021/10/10 10:25:05;;;;;;;8.98;5.90;;;;;;;14.45;50.60;100531.22;4994093;28;20042;-93
2021/10/10 10:27:32;;;;;;;8.68;5.93;;;;;;;14.35;50.55;100528.31;4995493;28;20042;-93
2021/10/10 10:29:59;;;;;;;15.55;5.85;;;;;;;15.07;49.52;100529.91;4994402;28;20088;-92
2021/10/10 10:32:30;;;;;;;11.88;6.43;;;;;;;15.04;48.06;100521.41;4987468;28;20362;-91
2021/10/10 10:35:03;;;;;;;12.02;7.15;;;;;;;15.28;48.80;100524.22;4991210;28;20070;-88
2021/10/10 10:37:42;;;;;;;14.68;5.97;;;;;;;14.79;49.15;100524.75;4985892;28;20081;-86
2021/10/10 10:40:15;;;;;;;10.77;5.97;;;;;;;14.60;48.64;100518.03;4988408;28;20050;-89
2021/10/10 10:42:46;;;;;;;19.00;6.32;;;;;;;15.02;48.38;100518.91;4986089;28;20102;-90
2021/10/10 10:45:22;;;;;;;11.15;6.07;;;;;;;15.13;48.15;100511.16;4991446;28;20053;-90
2021/10/10 10:47:53;;;;;;;12.75;5.78;;;;;;;14.68;49.18;100510.53;4993525;28;20074;-91
2021/10/10 10:50:25;;;;;;;9.80;6.28;;;;;;;14.49;48.55;100504.75;4996948;28;20073;-90
2021/10/10 10:52:55;;;;;;;9.90;6.38;;;;;;;13.78;49.44;100502.03;4989187;28;20058;-89
2021/10/10 10:55:34;;;;;;;12.77;5.88;;;;;;;14.53;48.27;100500.13;4990643;28;20053;-88
2021/10/10 10:58:10;;;;;;;10.48;6.40;;;;;;;14.78;47.40;100504.69;4992584;28;20046;-94
2021/10/10 11:00:41;;;;;;;9.73;6.45;;;;;;;14.98;48.23;100496.41;4995022;28;20038;-95
2021/10/10 11:03:26;;;;;;;13.20;6.47;;;;;;;15.80;47.83;100492.75;4994248;28;20454;-95
2021/10/10 11:06:05;;;;;;;13.18;6.63;;;;;;;15.98;45.26;100496.75;4991369;28;20351;-94
2021/10/10 11:08:37;;;;;;;11.60;6.43;;;;;;;15.30;45.81;100480.34;4987878;28;20043;-86
2021/10/10 11:11:24;;;;;;;17.52;6.25;;;;;;;14.56;47.33;100479.81;4993027;28;20362;-88
2021/10/10 11:13:55;;;;;;;18.58;6.82;;;;;;;14.15;49.34;100475.31;4989897;28;20045;-90
2021/10/10 14:37:11;;;;;;;11.07;5.40;;;;;;;15.33;43.68;100264.75;5919494;23;20842;-89
2021/10/10 14:39:38;;;;;;;10.38;5.60;;;;;;;15.47;43.77;100269.88;4936428;29;20067;-87
2021/10/10 14:42:11;;;;;;;6.50;5.75;;;;;;;15.41;43.25;100262.44;4927056;29;20514;-87
2021/10/10 14:49:35;;;;;;;10.85;5.20;;;;;;;15.62;42.36;100263.56;4938466;29;20044;-88
2021/10/10 14:52:07;;;;;;;8.95;4.65;;;;;;;15.84;42.47;100254.19;4948807;28;20048;-88
2021/10/10 14:54:34;;;;;;;8.77;5.07;;;;;;;15.07;43.01;100266.53;4938327;29;20044;-88
2021/10/10 14:57:06;;;;;;;13.43;5.78;;;;;;;15.23;42.73;100263.69;4944799;29;20401;-88
2021/10/10 14:59:32;;;;;;;7.57;5.43;;;;;;;14.96;43.18;100259.41;4941477;28;20043;-87
2021/10/10 15:01:59;;;;;;;8.73;4.80;;;;;;;15.20;42.75;100264.75;4934921;29;20406;-88
2021/10/10 15:04:26;;;;;;;7.60;4.68;;;;;;;15.25;42.84;100259.19;4937259;29;20135;-87
2021/10/10 15:07:02;;;;;;;9.60;5.60;;;;;;;14.99;42.42;100263.63;4937044;28;20080;-87